sensor_id;sensor_type;location;lat;lon;timestamp;pressure;altitude;pressure_sealevel;temperature;humidity
18145;BME280;14857;41.200;-8.326;2022-10-31T00:01:31;99973.91;;;15.50;100.00
18145;BME280;14857;41.200;-8.326;2022-10-31T00:04:02;99958.94;;;15.31;100.00
18145;BME280;14857;41.200;-8.326;2022-10-31T00:06:31;99968.34;;;15.34;100.00
18145;BME280;14857;41.200;-8.326;2022-10-31T00:09:01;99973.34;;;15.37;100.00
18145;BME280;14857;41.200;-8.326;2022-10-31T00:11:30;99961.13;;;15.26;100.00
18145;BME280;14857;41.200;-8.326;2022-10-31T00:13:58;99975.41;;;15.43;100.00
18145;BME280;14857;41.200;-8.326;2022-10-31T00:16:28;99979.44;;;15.47;100.00
18145;BME280;14857;41.200;-8.326;2022-10-31T00:18:59;99979.72;;;15.44;100.00
18145;BME280;14857;41.200;-8.326;2022-10-31T00:21:30;99983.00;;;15.65;100.00
18145;BME280;14857;41.200;-8.326;2022-10-31T00:23:59;99975.00;;;15.57;100.00
18145;BME280;14857;41.200;-8.326;2022-10-31T00:26:29;99975.81;;;15.57;100.00
18145;BME280;14857;41.200;-8.326;2022-10-31T00:28:58;99960.84;;;15.39;100.00
18145;BME280;14857;41.200;-8.326;2022-10-31T00:31:32;99971.66;;;15.36;100.00
18145;BME280;14857;41.200;-8.326;2022-10-31T00:34:00;99979.16;;;15.50;100.00
18145;BME280;14857;41.200;-8.326;2022-10-31T00:36:32;99965.28;;;15.29;100.00
18145;BME280;14857;41.200;-8.326;2022-10-31T00:39:01;99969.44;;;15.41;100.00
18145;BME280;14857;41.200;-8.326;2022-10-31T00:41:30;99968.06;;;15.27;100.00
18145;BME280;14857;41.200;-8.326;2022-10-31T00:43:58;99981.66;;;15.32;100.00
18145;BME280;14857;41.200;-8.326;2022-10-31T00:46:27;99975.03;;;15.28;100.00
18145;BME280;14857;41.200;-8.326;2022-10-31T00:48:56;99980.00;;;15.41;100.00
18145;BME280;14857;41.200;-8.326;2022-10-31T00:51:26;99979.44;;;15.37;100.00
18145;BME280;14857;41.200;-8.326;2022-10-31T00:53:56;99973.88;;;15.40;100.00
18145;BME280;14857;41.200;-8.326;2022-10-31T00:56:24;99935.78;;;15.15;100.00
18145;BME280;14857;41.200;-8.326;2022-10-31T00:58:53;99953.38;;;15.34;100.00
18145;BME280;14857;41.200;-8.326;2022-10-31T01:01:21;99940.63;;;15.30;100.00
18145;BME280;14857;41.200;-8.326;2022-10-31T01:03:50;99941.13;;;15.62;100.00
18145;BME280;14857;41.200;-8.326;2022-10-31T01:06:19;99932.94;;;15.65;100.00
18145;BME280;14857;41.200;-8.326;2022-10-31T01:08:47;99919.09;;;15.53;100.00
18145;BME280;14857;41.200;-8.326;2022-10-31T01:11:20;99907.06;;;15.51;100.00
18145;BME280;14857;41.200;-8.326;2022-10-31T01:13:50;99915.47;;;15.45;100.00
18145;BME280;14857;41.200;-8.326;2022-10-31T01:16:21;99900.38;;;15.56;100.00
18145;BME280;14857;41.200;-8.326;2022-10-31T01:18:51;99900.50;;;15.55;100.00
18145;BME280;14857;41.200;-8.326;2022-10-31T01:21:21;99884.84;;;15.53;100.00
18145;BME280;14857;41.200;-8.326;2022-10-31T01:23:52;99874.31;;;15.44;100.00
18145;BME280;14857;41.200;-8.326;2022-10-31T01:26:24;99892.00;;;15.61;100.00
18145;BME280;14857;41.200;-8.326;2022-10-31T01:28:54;99871.50;;;15.55;100.00
18145;BME280;14857;41.200;-8.326;2022-10-31T01:31:25;99881.94;;;15.47;100.00
18145;BME280;14857;41.200;-8.326;2022-10-31T01:33:54;99881.47;;;15.61;100.00
18145;BME280;14857;41.200;-8.326;2022-10-31T01:36:24;99885.91;;;15.70;100.00
18145;BME280;14857;41.200;-8.326;2022-10-31T01:38:56;99886.41;;;15.83;100.00
18145;BME280;14857;41.200;-8.326;2022-10-31T01:41:28;99870.63;;;15.64;100.00
18145;BME280;14857;41.200;-8.326;2022-10-31T01:43:59;99872.81;;;15.78;100.00
18145;BME280;14857;41.200;-8.326;2022-10-31T01:46:31;99876.94;;;15.44;100.00
18145;BME280;14857;41.200;-8.326;2022-10-31T01:49:03;99882.34;;;15.42;100.00
18145;BME280;14857;41.200;-8.326;2022-10-31T01:51:34;99871.25;;;15.48;100.00
18145;BME280;14857;41.200;-8.326;2022-10-31T01:54:08;99883.47;;;15.40;100.00
18145;BME280;14857;41.200;-8.326;2022-10-31T01:56:43;99882.75;;;15.47;100.00
18145;BME280;14857;41.200;-8.326;2022-10-31T01:59:15;99879.41;;;15.55;100.00
18145;BME280;14857;41.200;-8.326;2022-10-31T02:01:46;99860.69;;;15.58;100.00
18145;BME280;14857;41.200;-8.326;2022-10-31T02:04:16;99868.72;;;15.66;100.00
18145;BME280;14857;41.200;-8.326;2022-10-31T02:06:49;99847.53;;;15.48;100.00
18145;BME280;14857;41.200;-8.326;2022-10-31T02:09:19;99863.63;;;15.82;100.00
18145;BME280;14857;41.200;-8.326;2022-10-31T02:11:52;99866.84;;;16.03;100.00
18145;BME280;14857;41.200;-8.326;2022-10-31T02:14:24;99853.94;;;16.00;100.00
18145;BME280;14857;41.200;-8.326;2022-10-31T02:16:53;99835.91;;;16.05;100.00
18145;BME280;14857;41.200;-8.326;2022-10-31T02:19:26;99835.72;;;16.07;100.00
18145;BME280;14857;41.200;-8.326;2022-10-31T02:22:02;99833.09;;;16.07;100.00
18145;BME280;14857;41.200;-8.326;2022-10-31T02:24:46;99836.25;;;16.10;100.00
18145;BME280;14857;41.200;-8.326;2022-10-31T02:27:41;99837.34;;;15.90;100.00
18145;BME280;14857;41.200;-8.326;2022-10-31T02:30:18;99835.22;;;15.76;100.00
18145;BME280;14857;41.200;-8.326;2022-10-31T02:33:07;99830.81;;;15.94;100.00
18145;BME280;14857;41.200;-8.326;2022-10-31T02:35:48;99816.78;;;15.76;100.00
18145;BME280;14857;41.200;-8.326;2022-10-31T02:38:31;99797.59;;;15.56;100.00
18145;BME280;14857;41.200;-8.326;2022-10-31T02:41:13;99773.66;;;15.40;100.00
18145;BME280;14857;41.200;-8.326;2022-10-31T02:43:58;99803.00;;;15.45;100.00
18145;BME280;14857;41.200;-8.326;2022-10-31T02:46:35;99820.81;;;15.70;100.00
18145;BME280;14857;41.200;-8.326;2022-10-31T02:49:18;99811.88;;;15.81;100.00
18145;BME280;14857;41.200;-8.326;2022-10-31T02:51:48;99802.03;;;15.83;100.00
18145;BME280;14857;41.200;-8.326;2022-10-31T02:54:18;99770.41;;;15.73;100.00
18145;BME280;14857;41.200;-8.326;2022-10-31T02:56:54;99774.59;;;15.76;100.00
18145;BME280;14857;41.200;-8.326;2022-10-31T02:59:26;99772.13;;;15.92;100.00
18145;BME280;14857;41.200;-8.326;2022-10-31T03:02:20;99772.19;;;16.00;100.00
18145;BME280;14857;41.200;-8.326;2022-10-31T03:05:14;99767.53;;;15.94;100.00
18145;BME280;14857;41.200;-8.326;2022-10-31T03:07:56;99736.28;;;15.99;100.00
18145;BME280;14857;41.200;-8.326;2022-10-31T03:10:32;99726.44;;;15.74;100.00
18145;BME280;14857;41.200;-8.326;2022-10-31T03:13:09;99728.09;;;15.75;100.00
18145;BME280;14857;41.200;-8.326;2022-10-31T03:15:43;99711.22;;;15.68;100.00
18145;BME280;14857;41.200;-8.326;2022-10-31T03:18:15;99721.63;;;15.87;100.00
18145;BME280;14857;41.200;-8.326;2022-10-31T03:20:51;99736.94;;;16.01;100.00
18145;BME280;14857;41.200;-8.326;2022-10-31T03:23:22;99724.38;;;15.95;100.00
18145;BME280;14857;41.200;-8.326;2022-10-31T03:25:53;99728.28;;;16.09;100.00
18145;BME280;14857;41.200;-8.326;2022-10-31T03:28:29;99711.78;;;15.89;100.00
18145;BME280;14857;41.200;-8.326;2022-10-31T03:31:00;99702.28;;;15.79;100.00
18145;BME280;14857;41.200;-8.326;2022-10-31T03:33:37;99688.16;;;15.52;100.00
18145;BME280;14857;41.200;-8.326;2022-10-31T03:36:10;99695.81;;;15.46;100.00
18145;BME280;14857;41.200;-8.326;2022-10-31T03:38:44;99712.56;;;15.54;100.00
18145;BME280;14857;41.200;-8.326;2022-10-31T03:41:19;99732.47;;;15.66;100.00
18145;BME280;14857;41.200;-8.326;2022-10-31T03:43:54;99749.81;;;15.87;100.00
18145;BME280;14857;41.200;-8.326;2022-10-31T03:46:24;99770.91;;;16.04;100.00
18145;BME280;14857;41.200;-8.326;2022-10-31T03:48:56;99753.88;;;16.16;100.00
18145;BME280;14857;41.200;-8.326;2022-10-31T03:51:32;99751.50;;;16.05;100.00
18145;BME280;14857;41.200;-8.326;2022-10-31T03:54:11;99758.72;;;16.03;100.00
18145;BME280;14857;41.200;-8.326;2022-10-31T03:56:47;99766.09;;;16.17;100.00
18145;BME280;14857;41.200;-8.326;2022-10-31T03:59:24;99751.22;;;15.81;100.00
18145;BME280;14857;41.200;-8.326;2022-10-31T04:01:57;99746.16;;;15.52;100.00
18145;BME280;14857;41.200;-8.326;2022-10-31T04:04:28;99757.22;;;15.56;100.00
18145;BME280;14857;41.200;-8.326;2022-10-31T04:07:00;99760.00;;;15.45;100.00
18145;BME280;14857;41.200;-8.326;2022-10-31T04:09:33;99788.41;;;15.60;100.00
18145;BME280;14857;41.200;-8.326;2022-10-31T04:12:05;99804.66;;;15.83;100.00
18145;BME280;14857;41.200;-8.326;2022-10-31T04:14:46;99789.22;;;15.88;100.00
18145;BME280;14857;41.200;-8.326;2022-10-31T04:17:19;99777.31;;;15.84;100.00
18145;BME280;14857;41.200;-8.326;2022-10-31T04:19:48;99784.38;;;15.84;100.00
18145;BME280;14857;41.200;-8.326;2022-10-31T04:22:18;99778.66;;;15.88;100.00
18145;BME280;14857;41.200;-8.326;2022-10-31T04:24:47;99785.00;;;15.95;100.00
18145;BME280;14857;41.200;-8.326;2022-10-31T04:27:17;99779.34;;;15.90;100.00
18145;BME280;14857;41.200;-8.326;2022-10-31T04:29:45;99791.19;;;15.86;100.00
18145;BME280;14857;41.200;-8.326;2022-10-31T04:32:17;99776.69;;;15.90;100.00
18145;BME280;14857;41.200;-8.326;2022-10-31T04:34:46;99786.09;;;16.02;100.00
18145;BME280;14857;41.200;-8.326;2022-10-31T04:37:14;99780.88;;;16.10;100.00
18145;BME280;14857;41.200;-8.326;2022-10-31T04:39:44;99760.53;;;16.20;100.00
18145;BME280;14857;41.200;-8.326;2022-10-31T04:42:36;99743.72;;;15.86;100.00
18145;BME280;14857;41.200;-8.326;2022-10-31T04:45:06;99745.34;;;15.69;100.00
18145;BME280;14857;41.200;-8.326;2022-10-31T04:47:35;99751.69;;;15.77;100.00
18145;BME280;14857;41.200;-8.326;2022-10-31T04:50:05;99747.94;;;15.79;100.00
18145;BME280;14857;41.200;-8.326;2022-10-31T04:52:38;99741.53;;;15.82;100.00
18145;BME280;14857;41.200;-8.326;2022-10-31T04:55:10;99734.22;;;15.93;100.00
18145;BME280;14857;41.200;-8.326;2022-10-31T04:57:49;99727.06;;;15.86;100.00
18145;BME280;14857;41.200;-8.326;2022-10-31T05:00:20;99725.03;;;15.97;100.00
18145;BME280;14857;41.200;-8.326;2022-10-31T05:05:41;99712.59;;;16.25;100.00
18145;BME280;14857;41.200;-8.326;2022-10-31T05:08:12;99713.31;;;16.35;100.00
18145;BME280;14857;41.200;-8.326;2022-10-31T05:10:42;99702.06;;;16.51;100.00
18145;BME280;14857;41.200;-8.326;2022-10-31T05:13:10;99697.91;;;16.48;100.00
18145;BME280;14857;41.200;-8.326;2022-10-31T05:15:59;99688.34;;;16.47;100.00
18145;BME280;14857;41.200;-8.326;2022-10-31T05:18:51;99680.63;;;16.54;100.00
18145;BME280;14857;41.200;-8.326;2022-10-31T05:21:38;99682.69;;;16.60;100.00
18145;BME280;14857;41.200;-8.326;2022-10-31T05:24:07;99667.56;;;16.52;100.00
18145;BME280;14857;41.200;-8.326;2022-10-31T05:26:39;99672.25;;;16.58;100.00
18145;BME280;14857;41.200;-8.326;2022-10-31T05:29:08;99669.16;;;16.63;100.00
18145;BME280;14857;41.200;-8.326;2022-10-31T05:31:37;99657.66;;;16.46;100.00
18145;BME280;14857;41.200;-8.326;2022-10-31T05:34:12;99652.56;;;16.53;100.00
18145;BME280;14857;41.200;-8.326;2022-10-31T05:36:59;99654.44;;;16.35;100.00
18145;BME280;14857;41.200;-8.326;2022-10-31T05:39:28;99666.31;;;16.56;100.00
18145;BME280;14857;41.200;-8.326;2022-10-31T05:42:02;99670.50;;;16.67;100.00
18145;BME280;14857;41.200;-8.326;2022-10-31T05:44:31;99677.13;;;16.71;100.00
18145;BME280;14857;41.200;-8.326;2022-10-31T05:47:12;99685.75;;;16.81;100.00
18145;BME280;14857;41.200;-8.326;2022-10-31T05:49:59;99670.41;;;16.76;100.00
18145;BME280;14857;41.200;-8.326;2022-10-31T05:52:34;99672.63;;;16.63;100.00
18145;BME280;14857;41.200;-8.326;2022-10-31T05:55:13;99661.88;;;16.57;100.00
18145;BME280;14857;41.200;-8.326;2022-10-31T05:57:58;99668.53;;;16.69;100.00
18145;BME280;14857;41.200;-8.326;2022-10-31T06:00:27;99662.03;;;16.89;100.00
18145;BME280;14857;41.200;-8.326;2022-10-31T06:03:06;99637.75;;;17.27;100.00
18145;BME280;14857;41.200;-8.326;2022-10-31T06:05:53;99603.78;;;17.57;100.00
18145;BME280;14857;41.200;-8.326;2022-10-31T06:08:31;99587.09;;;17.64;100.00
18145;BME280;14857;41.200;-8.326;2022-10-31T06:11:04;99582.66;;;17.73;100.00
18145;BME280;14857;41.200;-8.326;2022-10-31T06:13:52;99574.69;;;17.81;100.00
18145;BME280;14857;41.200;-8.326;2022-10-31T06:16:25;99575.72;;;17.80;100.00
18145;BME280;14857;41.200;-8.326;2022-10-31T06:18:56;99563.13;;;17.82;100.00
18145;BME280;14857;41.200;-8.326;2022-10-31T06:21:25;99557.84;;;17.82;100.00
18145;BME280;14857;41.200;-8.326;2022-10-31T06:23:54;99575.03;;;17.86;100.00
18145;BME280;14857;41.200;-8.326;2022-10-31T06:26:37;99575.34;;;17.91;100.00
18145;BME280;14857;41.200;-8.326;2022-10-31T06:29:06;99578.31;;;18.04;100.00
18145;BME280;14857;41.200;-8.326;2022-10-31T06:31:58;99563.75;;;18.00;100.00
18145;BME280;14857;41.200;-8.326;2022-10-31T06:34:27;99576.31;;;18.06;100.00
18145;BME280;14857;41.200;-8.326;2022-10-31T06:36:57;99564.59;;;18.09;100.00
18145;BME280;14857;41.200;-8.326;2022-10-31T06:39:27;99572.88;;;17.98;100.00
18145;BME280;14857;41.200;-8.326;2022-10-31T06:41:56;99570.03;;;18.07;100.00
18145;BME280;14857;41.200;-8.326;2022-10-31T06:44:27;99560.78;;;18.03;100.00
18145;BME280;14857;41.200;-8.326;2022-10-31T06:46:59;99568.91;;;18.02;100.00
18145;BME280;14857;41.200;-8.326;2022-10-31T06:50:06;99564.44;;;18.02;100.00
18145;BME280;14857;41.200;-8.326;2022-10-31T06:52:35;99569.56;;;18.12;100.00
18145;BME280;14857;41.200;-8.326;2022-10-31T06:55:04;99573.66;;;18.06;100.00
18145;BME280;14857;41.200;-8.326;2022-10-31T06:57:34;99564.78;;;17.99;100.00
18145;BME280;14857;41.200;-8.326;2022-10-31T07:00:05;99575.16;;;18.25;100.00
18145;BME280;14857;41.200;-8.326;2022-10-31T07:02:42;99572.00;;;18.13;100.00
18145;BME280;14857;41.200;-8.326;2022-10-31T07:05:11;99556.47;;;18.10;100.00
18145;BME280;14857;41.200;-8.326;2022-10-31T07:07:40;99564.59;;;18.09;100.00
18145;BME280;14857;41.200;-8.326;2022-10-31T07:10:08;99570.72;;;18.09;100.00
18145;BME280;14857;41.200;-8.326;2022-10-31T07:12:54;99584.59;;;18.03;100.00
18145;BME280;14857;41.200;-8.326;2022-10-31T07:15:25;99604.44;;;17.91;100.00
18145;BME280;14857;41.200;-8.326;2022-10-31T07:17:59;99609.94;;;17.90;100.00
18145;BME280;14857;41.200;-8.326;2022-10-31T07:20:30;99626.63;;;17.82;100.00
18145;BME280;14857;41.200;-8.326;2022-10-31T07:22:59;99635.69;;;17.71;100.00
18145;BME280;14857;41.200;-8.326;2022-10-31T07:25:30;99663.16;;;17.70;100.00
18145;BME280;14857;41.200;-8.326;2022-10-31T07:28:09;99642.44;;;17.58;100.00
18145;BME280;14857;41.200;-8.326;2022-10-31T07:30:40;99688.44;;;17.81;100.00
18145;BME280;14857;41.200;-8.326;2022-10-31T07:33:08;99685.47;;;17.84;100.00
18145;BME280;14857;41.200;-8.326;2022-10-31T07:35:56;99676.84;;;17.74;100.00
18145;BME280;14857;41.200;-8.326;2022-10-31T07:38:29;99685.13;;;17.79;100.00
18145;BME280;14857;41.200;-8.326;2022-10-31T07:41:02;99699.34;;;17.78;100.00
18145;BME280;14857;41.200;-8.326;2022-10-31T07:43:36;99721.19;;;17.80;100.00
18145;BME280;14857;41.200;-8.326;2022-10-31T07:46:09;99725.81;;;17.86;100.00
18145;BME280;14857;41.200;-8.326;2022-10-31T07:48:56;99726.16;;;17.83;100.00
18145;BME280;14857;41.200;-8.326;2022-10-31T07:51:43;99737.22;;;17.87;100.00
18145;BME280;14857;41.200;-8.326;2022-10-31T07:54:12;99746.47;;;17.91;100.00
18145;BME280;14857;41.200;-8.326;2022-10-31T07:56:41;99742.16;;;17.73;100.00
18145;BME280;14857;41.200;-8.326;2022-10-31T07:59:10;99771.28;;;17.90;100.00
18145;BME280;14857;41.200;-8.326;2022-10-31T08:01:40;99765.53;;;18.02;100.00
18145;BME280;14857;41.200;-8.326;2022-10-31T08:04:37;99777.75;;;18.03;100.00
18145;BME280;14857;41.200;-8.326;2022-10-31T08:07:24;99785.06;;;18.17;100.00
18145;BME280;14857;41.200;-8.326;2022-10-31T08:09:59;99756.44;;;18.13;100.00
18145;BME280;14857;41.200;-8.326;2022-10-31T08:12:30;99777.44;;;18.22;100.00
18145;BME280;14857;41.200;-8.326;2022-10-31T08:14:59;99773.00;;;18.39;100.00
18145;BME280;14857;41.200;-8.326;2022-10-31T08:17:30;99769.22;;;18.42;100.00
18145;BME280;14857;41.200;-8.326;2022-10-31T08:20:03;99768.88;;;18.53;100.00
18145;BME280;14857;41.200;-8.326;2022-10-31T08:22:35;99777.97;;;18.58;100.00
18145;BME280;14857;41.200;-8.326;2022-10-31T08:25:09;99762.28;;;18.57;100.00
18145;BME280;14857;41.200;-8.326;2022-10-31T08:27:38;99781.13;;;18.62;100.00
18145;BME280;14857;41.200;-8.326;2022-10-31T08:30:15;99784.78;;;18.69;100.00
18145;BME280;14857;41.200;-8.326;2022-10-31T08:33:03;99780.63;;;18.66;100.00
18145;BME280;14857;41.200;-8.326;2022-10-31T08:35:50;99787.09;;;18.64;100.00
18145;BME280;14857;41.200;-8.326;2022-10-31T08:38:37;99790.75;;;18.63;100.00
18145;BME280;14857;41.200;-8.326;2022-10-31T08:41:08;99786.78;;;18.67;100.00
18145;BME280;14857;41.200;-8.326;2022-10-31T08:43:37;99785.25;;;18.64;100.00
18145;BME280;14857;41.200;-8.326;2022-10-31T08:46:06;99787.44;;;18.77;100.00
18145;BME280;14857;41.200;-8.326;2022-10-31T08:48:36;99786.75;;;18.83;100.00
18145;BME280;14857;41.200;-8.326;2022-10-31T08:51:05;99792.22;;;18.81;100.00
18145;BME280;14857;41.200;-8.326;2022-10-31T08:53:34;99801.50;;;18.69;100.00
18145;BME280;14857;41.200;-8.326;2022-10-31T08:56:21;99810.59;;;18.59;100.00
18145;BME280;14857;41.200;-8.326;2022-10-31T08:58:52;99835.88;;;18.45;100.00
18145;BME280;14857;41.200;-8.326;2022-10-31T09:01:31;99827.28;;;18.43;100.00
18145;BME280;14857;41.200;-8.326;2022-10-31T09:04:01;99841.66;;;18.49;100.00
18145;BME280;14857;41.200;-8.326;2022-10-31T09:06:30;99851.09;;;18.43;100.00
18145;BME280;14857;41.200;-8.326;2022-10-31T09:08:58;99853.44;;;18.46;100.00
18145;BME280;14857;41.200;-8.326;2022-10-31T09:11:27;99847.78;;;18.33;100.00
18145;BME280;14857;41.200;-8.326;2022-10-31T09:14:04;99861.88;;;18.42;100.00
18145;BME280;14857;41.200;-8.326;2022-10-31T09:16:38;99871.34;;;18.60;100.00
18145;BME280;14857;41.200;-8.326;2022-10-31T09:19:15;99867.06;;;18.75;100.00
18145;BME280;14857;41.200;-8.326;2022-10-31T09:21:46;99863.59;;;18.83;100.00
18145;BME280;14857;41.200;-8.326;2022-10-31T09:24:14;99859.94;;;18.84;100.00
18145;BME280;14857;41.200;-8.326;2022-10-31T09:26:42;99808.78;;;18.67;100.00
18145;BME280;14857;41.200;-8.326;2022-10-31T09:29:25;99847.69;;;18.99;100.00
18145;BME280;14857;41.200;-8.326;2022-10-31T09:31:58;99855.31;;;19.02;100.00
18145;BME280;14857;41.200;-8.326;2022-10-31T09:34:32;99847.81;;;19.14;100.00
18145;BME280;14857;41.200;-8.326;2022-10-31T09:37:13;99850.31;;;19.07;100.00
18145;BME280;14857;41.200;-8.326;2022-10-31T09:39:42;99849.66;;;18.97;100.00
18145;BME280;14857;41.200;-8.326;2022-10-31T09:42:43;99863.91;;;19.04;100.00
18145;BME280;14857;41.200;-8.326;2022-10-31T09:45:25;99850.66;;;18.96;100.00
18145;BME280;14857;41.200;-8.326;2022-10-31T09:48:17;99858.94;;;19.01;100.00
18145;BME280;14857;41.200;-8.326;2022-10-31T09:51:11;99851.66;;;18.87;100.00
18145;BME280;14857;41.200;-8.326;2022-10-31T09:54:08;99871.19;;;19.02;100.00
18145;BME280;14857;41.200;-8.326;2022-10-31T09:56:38;99874.19;;;18.99;100.00
18145;BME280;14857;41.200;-8.326;2022-10-31T09:59:23;99875.16;;;19.22;100.00
18145;BME280;14857;41.200;-8.326;2022-10-31T10:01:56;99864.56;;;19.14;100.00
18145;BME280;14857;41.200;-8.326;2022-10-31T10:04:40;99874.78;;;19.33;100.00
18145;BME280;14857;41.200;-8.326;2022-10-31T10:07:25;99867.16;;;19.55;100.00
18145;BME280;14857;41.200;-8.326;2022-10-31T10:10:43;99855.75;;;19.85;100.00
18145;BME280;14857;41.200;-8.326;2022-10-31T10:13:42;99848.75;;;20.31;100.00
18145;BME280;14857;41.200;-8.326;2022-10-31T10:16:19;99832.50;;;21.09;100.00
18145;BME280;14857;41.200;-8.326;2022-10-31T10:19:00;99801.34;;;22.69;100.00
18145;BME280;14857;41.200;-8.326;2022-10-31T10:21:39;99789.22;;;24.10;100.00
18145;BME280;14857;41.200;-8.326;2022-10-31T10:24:20;99787.13;;;23.99;100.00
18145;BME280;14857;41.200;-8.326;2022-10-31T10:26:57;99789.22;;;23.56;100.00
18145;BME280;14857;41.200;-8.326;2022-10-31T10:29:34;99790.53;;;22.77;100.00
18145;BME280;14857;41.200;-8.326;2022-10-31T10:32:11;99787.47;;;21.95;100.00
18145;BME280;14857;41.200;-8.326;2022-10-31T10:34:47;99823.41;;;21.26;100.00
18145;BME280;14857;41.200;-8.326;2022-10-31T10:37:24;99831.72;;;20.85;100.00
18145;BME280;14857;41.200;-8.326;2022-10-31T10:40:05;99833.84;;;20.90;100.00
18145;BME280;14857;41.200;-8.326;2022-10-31T10:42:36;99835.47;;;20.76;100.00
18145;BME280;14857;41.200;-8.326;2022-10-31T10:45:22;99849.16;;;20.65;100.00
18145;BME280;14857;41.200;-8.326;2022-10-31T10:48:14;99855.06;;;20.30;100.00
18145;BME280;14857;41.200;-8.326;2022-10-31T10:50:47;99853.16;;;20.08;100.00
18145;BME280;14857;41.200;-8.326;2022-10-31T10:53:28;99862.47;;;20.04;100.00
18145;BME280;14857;41.200;-8.326;2022-10-31T10:56:13;99878.09;;;19.99;100.00
18145;BME280;14857;41.200;-8.326;2022-10-31T10:58:44;99871.53;;;19.86;100.00
18145;BME280;14857;41.200;-8.326;2022-10-31T11:01:14;99872.44;;;20.02;100.00
18145;BME280;14857;41.200;-8.326;2022-10-31T11:03:43;99885.94;;;19.92;100.00
18145;BME280;14857;41.200;-8.326;2022-10-31T11:06:19;99894.78;;;20.15;100.00
18145;BME280;14857;41.200;-8.326;2022-10-31T11:08:52;99892.59;;;20.58;100.00
18145;BME280;14857;41.200;-8.326;2022-10-31T11:11:26;99850.03;;;21.03;100.00
18145;BME280;14857;41.200;-8.326;2022-10-31T11:14:01;99849.38;;;21.68;100.00
18145;BME280;14857;41.200;-8.326;2022-10-31T11:16:33;99841.31;;;22.47;100.00
18145;BME280;14857;41.200;-8.326;2022-10-31T11:19:13;99824.28;;;23.46;100.00
18145;BME280;14857;41.200;-8.326;2022-10-31T11:21:43;99788.75;;;23.93;100.00
18145;BME280;14857;41.200;-8.326;2022-10-31T11:24:21;99796.53;;;25.01;100.00
18145;BME280;14857;41.200;-8.326;2022-10-31T11:26:51;99791.31;;;25.52;100.00
18145;BME280;14857;41.200;-8.326;2022-10-31T11:29:30;99780.56;;;26.03;100.00
18145;BME280;14857;41.200;-8.326;2022-10-31T11:32:00;99771.41;;;26.49;100.00
18145;BME280;14857;41.200;-8.326;2022-10-31T11:34:30;99777.31;;;25.24;100.00
18145;BME280;14857;41.200;-8.326;2022-10-31T11:37:04;99767.91;;;25.73;100.00
18145;BME280;14857;41.200;-8.326;2022-10-31T11:39:41;99770.16;;;24.66;100.00
18145;BME280;14857;41.200;-8.326;2022-10-31T11:42:12;99801.56;;;23.57;100.00
18145;BME280;14857;41.200;-8.326;2022-10-31T11:44:42;99808.63;;;22.39;100.00
18145;BME280;14857;41.200;-8.326;2022-10-31T11:47:15;99819.31;;;22.03;100.00
18145;BME280;14857;41.200;-8.326;2022-10-31T11:49:45;99823.44;;;22.06;100.00
18145;BME280;14857;41.200;-8.326;2022-10-31T11:52:19;99830.34;;;22.00;100.00
18145;BME280;14857;41.200;-8.326;2022-10-31T11:54:51;99832.66;;;21.74;100.00
18145;BME280;14857;41.200;-8.326;2022-10-31T11:57:27;99835.97;;;21.61;100.00
18145;BME280;14857;41.200;-8.326;2022-10-31T11:59:58;99843.38;;;21.66;100.00
18145;BME280;14857;41.200;-8.326;2022-10-31T12:02:27;99847.06;;;21.35;100.00
18145;BME280;14857;41.200;-8.326;2022-10-31T12:05:00;99856.13;;;21.26;100.00
18145;BME280;14857;41.200;-8.326;2022-10-31T12:07:31;99873.28;;;21.01;100.00
18145;BME280;14857;41.200;-8.326;2022-10-31T12:09:59;99873.31;;;20.56;100.00
18145;BME280;14857;41.200;-8.326;2022-10-31T12:12:45;99879.78;;;20.30;100.00
18145;BME280;14857;41.200;-8.326;2022-10-31T12:15:30;99888.44;;;20.16;100.00
18145;BME280;14857;41.200;-8.326;2022-10-31T12:18:17;99884.53;;;20.04;100.00
18145;BME280;14857;41.200;-8.326;2022-10-31T12:20:57;99883.81;;;19.79;100.00
18145;BME280;14857;41.200;-8.326;2022-10-31T12:23:37;99876.25;;;19.60;100.00
18145;BME280;14857;41.200;-8.326;2022-10-31T12:26:16;99903.44;;;19.70;100.00
18145;BME280;14857;41.200;-8.326;2022-10-31T12:31:49;99919.13;;;19.88;100.00
18145;BME280;14857;41.200;-8.326;2022-10-31T12:34:37;99899.34;;;19.99;100.00
18145;BME280;14857;41.200;-8.326;2022-10-31T12:37:25;99927.78;;;20.21;100.00
18145;BME280;14857;41.200;-8.326;2022-10-31T12:40:15;99932.03;;;19.99;100.00
18145;BME280;14857;41.200;-8.326;2022-10-31T12:42:58;99936.00;;;20.03;100.00
18145;BME280;14857;41.200;-8.326;2022-10-31T12:45:53;99935.44;;;20.16;100.00
18145;BME280;14857;41.200;-8.326;2022-10-31T12:48:33;99937.97;;;20.01;100.00
18145;BME280;14857;41.200;-8.326;2022-10-31T12:51:15;99935.13;;;20.11;100.00
18145;BME280;14857;41.200;-8.326;2022-10-31T12:54:00;99945.81;;;20.41;100.00
18145;BME280;14857;41.200;-8.326;2022-10-31T12:56:42;99940.69;;;20.63;100.00
18145;BME280;14857;41.200;-8.326;2022-10-31T12:59:21;99930.91;;;20.86;100.00
18145;BME280;14857;41.200;-8.326;2022-10-31T13:01:55;99923.28;;;20.83;100.00
18145;BME280;14857;41.200;-8.326;2022-10-31T13:04:35;99937.94;;;21.02;100.00
18145;BME280;14857;41.200;-8.326;2022-10-31T13:07:09;99934.91;;;20.82;100.00
18145;BME280;14857;41.200;-8.326;2022-10-31T13:09:44;99935.59;;;20.84;100.00
18145;BME280;14857;41.200;-8.326;2022-10-31T13:12:16;99934.31;;;20.72;100.00
18145;BME280;14857;41.200;-8.326;2022-10-31T13:14:49;99932.41;;;20.35;100.00
18145;BME280;14857;41.200;-8.326;2022-10-31T13:17:24;99946.97;;;20.39;100.00
18145;BME280;14857;41.200;-8.326;2022-10-31T13:20:02;99941.63;;;20.00;100.00
18145;BME280;14857;41.200;-8.326;2022-10-31T13:22:38;99944.47;;;19.99;100.00
18145;BME280;14857;41.200;-8.326;2022-10-31T13:25:11;99948.00;;;19.75;100.00
18145;BME280;14857;41.200;-8.326;2022-10-31T13:27:47;99956.50;;;20.17;100.00